createdAt,value
2022-11-01T00:00:21.168Z,45.35
2022-11-01T00:04:42.868Z,52.50
2022-11-01T00:08:44.927Z,55.50
2022-11-01T00:12:47.098Z,55.72
2022-11-01T00:16:49.178Z,47.10
2022-11-01T00:20:50.925Z,47.30
2022-11-01T00:24:54.852Z,49.60
2022-11-01T00:28:57.008Z,55.70
2022-11-01T00:32:58.874Z,45.83
2022-11-01T00:37:00.635Z,51.72
2022-11-01T00:41:04.077Z,46.22
2022-11-01T00:45:06.321Z,47.33
2022-11-01T00:49:08.140Z,46.97
2022-11-01T00:53:11.990Z,46.63
2022-11-01T00:57:13.929Z,44.47
2022-11-01T01:01:15.779Z,45.97
2022-11-01T01:05:18.548Z,41.63
2022-11-01T01:09:20.620Z,51.38
2022-11-01T01:13:23.237Z,44.03
2022-11-01T01:17:26.719Z,45.08
2022-11-01T01:21:30.693Z,38.22
2022-11-01T01:25:32.929Z,41.13
2022-11-01T01:29:35.130Z,35.55
2022-11-01T01:33:36.831Z,39.58
2022-11-01T01:37:38.783Z,36.00
2022-11-01T01:41:58.905Z,38.72
2022-11-01T01:46:00.793Z,38.47
2022-11-01T01:50:26.848Z,33.13
2022-11-01T01:54:28.804Z,31.60
2022-11-01T01:58:35.561Z,33.22
2022-11-01T02:02:38.765Z,34.55
2022-11-01T02:06:40.835Z,36.15
2022-11-01T02:10:43.223Z,37.85
2022-11-01T02:14:46.101Z,37.50
2022-11-01T02:19:04.700Z,35.55
2022-11-01T02:23:43.651Z,35.63
2022-11-01T02:27:57.299Z,38.57
2022-11-01T02:32:19.823Z,38.47
2022-11-01T02:36:40.781Z,35.65
2022-11-01T02:41:01.070Z,41.65
2022-11-01T02:45:08.363Z,42.55
2022-11-01T02:49:13.769Z,45.15
2022-11-01T02:53:15.765Z,40.40
2022-11-01T02:57:17.506Z,37.28
2022-11-01T03:01:24.739Z,41.42
2022-11-01T03:05:50.500Z,37.20
2022-11-01T03:09:52.506Z,40.53
2022-11-01T03:14:09.587Z,39.55
2022-11-01T03:18:20.778Z,42.42
2022-11-01T03:22:48.947Z,35.85
2022-11-01T03:27:01.256Z,37.90
2022-11-01T03:31:11.646Z,43.17
2022-11-01T03:35:20.056Z,41.78
2022-11-01T03:39:33.292Z,38.95
2022-11-01T03:43:36.392Z,46.65
2022-11-01T03:47:38.101Z,42.03
2022-11-01T03:51:40.088Z,43.90
2022-11-01T03:55:42.232Z,50.05
2022-11-01T03:59:44.071Z,46.75
2022-11-01T04:03:45.922Z,51.38
2022-11-01T04:07:48.009Z,63.05
2022-11-01T04:11:49.658Z,48.33
2022-11-01T04:16:10.048Z,43.90
2022-11-01T04:20:30.428Z,44.60
2022-11-01T04:24:32.179Z,51.35
2022-11-01T04:28:33.978Z,45.47
2022-11-01T04:32:35.736Z,50.58
2022-11-01T04:36:38.438Z,49.28
2022-11-01T04:40:41.495Z,54.00
2022-11-01T04:44:43.227Z,54.35
2022-11-01T04:48:45.087Z,53.50
2022-11-01T04:52:48.113Z,47.90
2022-11-01T04:56:49.862Z,52.92
2022-11-01T05:00:51.580Z,53.33
2022-11-01T05:04:53.544Z,58.30
2022-11-01T05:08:55.559Z,51.33
2022-11-01T05:12:57.614Z,45.60
2022-11-01T05:17:00.149Z,41.90
2022-11-01T05:21:01.893Z,38.72
2022-11-01T05:25:04.042Z,43.60
2022-11-01T05:29:13.314Z,47.10
2022-11-01T05:33:26.047Z,42.40
2022-11-01T05:37:28.318Z,45.75
2022-11-01T05:41:30.140Z,37.10
2022-11-01T05:45:31.981Z,35.65
2022-11-01T05:49:33.701Z,31.17
2022-11-01T05:53:35.518Z,29.73
2022-11-01T05:57:37.370Z,39.70
2022-11-01T06:01:39.393Z,42.60
2022-11-01T06:05:41.208Z,39.42
2022-11-01T06:09:42.980Z,33.22
2022-11-01T06:13:44.718Z,37.25
2022-11-01T06:17:46.636Z,43.00
2022-11-01T06:21:48.247Z,28.10
2022-11-01T06:25:50.204Z,30.90
2022-11-01T06:29:52.003Z,35.67
2022-11-01T06:33:53.806Z,31.95
2022-11-01T06:37:55.577Z,31.45
2022-11-01T06:41:57.603Z,32.30
2022-11-01T06:46:00.922Z,40.05
2022-11-01T06:50:04.413Z,43.03
2022-11-01T06:54:06.294Z,36.47
2022-11-01T06:58:09.172Z,42.33
2022-11-01T07:02:14.324Z,32.83
2022-11-01T07:06:16.811Z,34.25
2022-11-01T07:10:18.541Z,28.05
2022-11-01T07:14:20.359Z,28.95
2022-11-01T07:18:22.098Z,31.77
2022-11-01T07:22:24.450Z,24.98
2022-11-01T07:26:26.129Z,29.65
2022-11-01T07:30:28.748Z,21.13
2022-11-01T07:34:30.459Z,22.30
2022-11-01T07:38:32.453Z,23.15
2022-11-01T07:42:41.055Z,24.10
2022-11-01T07:50:45.736Z,22.38
2022-11-01T07:54:47.759Z,25.95
2022-11-01T07:58:49.472Z,24.10
2022-11-01T08:02:51.404Z,30.27
2022-11-01T08:06:53.304Z,21.85
2022-11-01T08:10:55.062Z,23.30
2022-11-01T08:14:56.744Z,23.27
2022-11-01T08:18:58.644Z,23.02
2022-11-01T08:23:00.666Z,21.75
2022-11-01T08:27:03.984Z,26.70
2022-11-01T08:31:08.092Z,20.98
2022-11-01T08:35:12.102Z,25.38
2022-11-01T08:39:14.420Z,26.30
2022-11-01T08:43:17.830Z,24.77
2022-11-01T08:47:19.530Z,27.48
2022-11-01T08:51:25.771Z,26.13
2022-11-01T08:55:27.763Z,28.27
2022-11-01T08:59:29.716Z,29.20
2022-11-01T09:03:31.430Z,28.45
2022-11-01T09:07:37.625Z,34.00
2022-11-01T09:11:39.538Z,30.48
2022-11-01T09:15:41.332Z,31.20
2022-11-01T09:19:43.209Z,32.17
2022-11-01T09:23:46.437Z,28.63
2022-11-01T09:27:48.156Z,26.35
2022-11-01T09:31:54.102Z,27.35
2022-11-01T09:35:59.514Z,28.98
2022-11-01T09:40:01.979Z,29.15
2022-11-01T09:44:06.554Z,31.00
2022-11-01T09:48:10.965Z,31.27
2022-11-01T09:52:24.254Z,31.63
2022-11-01T09:56:34.754Z,30.02
2022-11-01T10:00:45.997Z,27.83
2022-11-01T10:05:25.159Z,27.15
2022-11-01T10:09:29.883Z,41.92
2022-11-01T10:14:05.181Z,30.55
2022-11-01T10:18:22.013Z,31.15
2022-11-01T10:22:35.281Z,31.60
2022-11-01T10:26:44.412Z,31.50
2022-11-01T10:30:53.638Z,31.77
2022-11-01T10:35:04.986Z,31.65
2022-11-01T10:39:53.228Z,32.30
2022-11-01T10:43:49.437Z,35.03
2022-11-01T10:47:57.306Z,35.03
2022-11-01T10:52:05.257Z,38.67
2022-11-01T10:56:10.020Z,40.28
2022-11-01T11:00:17.722Z,37.28
2022-11-01T11:04:24.708Z,40.73
2022-11-01T11:08:26.971Z,42.15
2022-11-01T11:12:31.034Z,45.50
2022-11-01T11:16:39.203Z,49.55
2022-11-01T11:20:41.167Z,50.60
2022-11-01T11:24:45.052Z,46.22
2022-11-01T11:28:55.332Z,52.92
2022-11-01T11:32:58.703Z,47.60
2022-11-01T11:37:02.034Z,51.92
2022-11-01T11:41:03.923Z,46.72
2022-11-01T11:45:29.563Z,46.05
2022-11-01T11:49:32.453Z,46.70
2022-11-01T11:53:35.265Z,53.05
2022-11-01T11:57:37.125Z,53.15
2022-11-01T12:01:39.121Z,53.20
2022-11-01T12:05:52.968Z,51.80
2022-11-01T12:09:56.082Z,48.65
2022-11-01T12:14:20.238Z,46.58
2022-11-01T12:18:23.978Z,57.20
2022-11-01T12:22:29.696Z,54.83
2022-11-01T12:26:35.114Z,60.10
2022-11-01T12:30:39.119Z,61.47
2022-11-01T12:34:43.313Z,56.47
2022-11-01T12:38:55.415Z,59.20
2022-11-01T12:43:03.221Z,82.85
2022-11-01T12:47:11.057Z,56.40
2022-11-01T12:51:36.602Z,69.23
2022-11-01T12:55:41.253Z,58.38
2022-11-01T12:59:44.366Z,76.85
2022-11-01T13:04:05.174Z,66.25
2022-11-01T13:08:12.509Z,68.00
2022-11-01T13:12:42.136Z,58.67
2022-11-01T13:16:49.882Z,52.80
2022-11-01T13:21:27.110Z,55.42
2022-11-01T13:25:40.193Z,57.05
2022-11-01T13:29:46.452Z,57.92
2022-11-01T13:34:08.394Z,59.60
2022-11-01T13:38:20.831Z,64.25
2022-11-01T13:42:42.079Z,67.38
2022-11-01T13:47:08.098Z,63.10
2022-11-01T13:51:26.878Z,71.45
2022-11-01T13:55:38.088Z,69.13
2022-11-01T13:59:44.366Z,62.17
2022-11-01T14:03:49.682Z,62.75
2022-11-01T14:07:53.936Z,56.65
2022-11-01T14:12:11.639Z,57.33
2022-11-01T14:16:16.237Z,66.22
2022-11-01T14:20:28.074Z,72.38
2022-11-01T14:24:34.861Z,63.28
2022-11-01T14:28:43.435Z,62.55
2022-11-01T14:32:53.458Z,65.60
2022-11-01T14:37:00.523Z,67.22
2022-11-01T14:41:03.511Z,63.42
2022-11-01T14:45:24.791Z,64.18
2022-11-01T14:49:36.045Z,89.30
2022-11-01T14:53:40.028Z,60.78
2022-11-01T14:57:42.168Z,68.75
2022-11-01T15:01:46.152Z,56.25
2022-11-01T15:05:50.751Z,61.83
2022-11-01T15:10:13.674Z,54.28
2022-11-01T15:14:25.485Z,62.70
2022-11-01T15:18:28.108Z,56.50
2022-11-01T15:22:33.758Z,52.17
2022-11-01T15:26:36.265Z,55.22
2022-11-01T15:30:38.888Z,66.85
2022-11-01T15:34:52.248Z,54.42
2022-11-01T15:38:56.937Z,53.65
2022-11-01T15:43:03.938Z,51.53
2022-11-01T15:47:06.918Z,50.60
2022-11-01T15:51:20.238Z,46.97
2022-11-01T15:55:31.612Z,49.88
2022-11-01T15:59:48.723Z,56.47
2022-11-01T16:04:02.328Z,50.80
2022-11-01T16:08:22.294Z,76.15
2022-11-01T16:12:30.782Z,62.72
2022-11-01T16:16:58.812Z,76.85
2022-11-01T16:21:21.705Z,54.00
2022-11-01T16:25:26.162Z,58.53
2022-11-01T16:29:51.027Z,49.97
2022-11-01T16:33:54.000Z,55.05
2022-11-01T16:37:56.009Z,54.40
2022-11-01T16:41:59.150Z,65.05
2022-11-01T16:46:01.332Z,61.95
2022-11-01T16:50:03.558Z,53.33
2022-11-01T16:54:05.441Z,53.92
2022-11-01T16:58:15.260Z,56.13
2022-11-01T17:02:25.112Z,57.92
2022-11-01T17:06:27.017Z,59.63
2022-11-01T17:10:30.987Z,58.40
2022-11-01T17:14:35.253Z,67.50
2022-11-01T17:18:41.686Z,63.33
2022-11-01T17:22:43.836Z,58.97
2022-11-01T17:26:46.416Z,64.90
2022-11-01T17:30:48.466Z,56.55
2022-11-01T17:34:50.488Z,55.75
2022-11-01T17:38:52.252Z,62.63
2022-11-01T17:42:54.465Z,58.67
2022-11-01T17:47:14.576Z,54.80
2022-11-01T17:51:18.023Z,53.35
2022-11-01T17:55:19.743Z,53.70
2022-11-01T17:59:21.704Z,56.58
2022-11-01T18:03:23.452Z,49.90
2022-11-01T18:07:34.842Z,58.55
2022-11-01T18:11:48.231Z,57.13
2022-11-01T18:16:20.568Z,53.20
2022-11-01T18:20:58.463Z,48.85
2022-11-01T18:25:11.033Z,49.03
2022-11-01T18:29:21.349Z,50.65
2022-11-01T18:33:30.837Z,57.63
2022-11-01T18:38:11.529Z,46.00
2022-11-01T18:42:13.448Z,51.40
2022-11-01T18:46:27.474Z,65.80
2022-11-01T18:50:29.625Z,57.63
2022-11-01T18:54:33.033Z,55.67
2022-11-01T18:58:35.948Z,63.13
2022-11-01T19:02:38.679Z,68.03
2022-11-01T19:06:40.674Z,65.68
2022-11-01T19:10:42.487Z,71.90
2022-11-01T19:14:48.692Z,69.55
2022-11-01T19:18:50.542Z,66.30
2022-11-01T19:23:08.712Z,65.45
2022-11-01T19:27:24.842Z,69.30
2022-11-01T19:31:32.991Z,60.22
2022-11-01T19:35:34.653Z,66.53
2022-11-01T19:39:40.195Z,67.50
2022-11-01T19:43:42.213Z,67.03
2022-11-01T19:47:47.407Z,62.00
2022-11-01T19:52:09.278Z,62.03
2022-11-01T19:56:16.337Z,75.78
2022-11-01T20:00:20.727Z,67.43
2022-11-01T20:04:27.916Z,70.82
2022-11-01T20:08:33.498Z,66.63
2022-11-01T20:12:35.398Z,69.78
2022-11-01T20:16:37.150Z,68.05
2022-11-01T20:20:43.789Z,68.47
2022-11-01T20:24:46.086Z,69.15
2022-11-01T20:28:49.075Z,67.57
2022-11-01T20:32:51.489Z,72.80
2022-11-01T20:37:14.871Z,68.00
2022-11-01T20:41:15.305Z,66.03
2022-11-01T20:45:17.166Z,71.00
2022-11-01T20:49:19.024Z,74.78
2022-11-01T20:53:21.520Z,72.45
2022-11-01T20:57:28.305Z,71.93
2022-11-01T21:01:30.665Z,71.45
2022-11-01T21:05:34.730Z,71.45
2022-11-01T21:09:43.582Z,72.07
2022-11-01T21:13:45.728Z,72.43
2022-11-01T21:17:52.200Z,74.15
2022-11-01T21:21:57.067Z,74.88
2022-11-01T21:26:12.681Z,73.38
2022-11-01T21:30:20.472Z,78.25
2022-11-01T21:34:31.181Z,76.43
2022-11-01T21:38:40.519Z,80.65
2022-11-01T21:42:44.757Z,86.38
2022-11-01T21:46:53.138Z,78.18
2022-11-01T21:50:55.261Z,78.63
2022-11-01T21:54:56.894Z,75.45
2022-11-01T21:58:59.684Z,79.32
2022-11-01T22:03:01.733Z,77.20
2022-11-01T22:07:06.163Z,84.47
2022-11-01T22:11:07.883Z,77.88
2022-11-01T22:15:10.234Z,85.38
2022-11-01T22:19:11.930Z,86.93
2022-11-01T22:23:13.972Z,80.18
2022-11-01T22:27:15.793Z,82.50
2022-11-01T22:31:18.280Z,81.00
2022-11-01T22:35:21.478Z,81.88
2022-11-01T22:39:26.500Z,85.07
2022-11-01T22:43:28.550Z,79.45
2022-11-01T22:47:30.510Z,86.43
2022-11-01T22:51:42.990Z,80.53
2022-11-01T22:55:46.907Z,83.15
2022-11-01T22:59:53.468Z,71.60
2022-11-01T23:03:57.228Z,76.25
2022-11-01T23:08:10.138Z,66.75
2022-11-01T23:12:40.695Z,66.75
2022-11-01T23:16:44.065Z,63.58
2022-11-01T23:21:01.980Z,63.67
2022-11-01T23:25:04.358Z,60.97
2022-11-01T23:29:06.266Z,59.75
2022-11-01T23:33:11.875Z,63.90
2022-11-01T23:37:21.007Z,61.33
2022-11-01T23:41:25.953Z,61.20
2022-11-01T23:45:33.971Z,67.05
2022-11-01T23:49:36.019Z,58.67
2022-11-01T23:53:40.592Z,57.42
2022-11-01T23:57:42.543Z,57.15
